Arcadia, Oklahoma
Current Conditions -  °F | °C
As of 3:53 AM on Sunday 23 Nov 2014 (Local Time) from KGOK Reporting Station
Overcast Overcast  
Wind Chill: 56°   Ceiling: 1500
Heat Index: 56°   Visibility: 10mi
Dew Point: 52°   Wind: 14mph
Humidity: 87%   Direction: 170°S
Pressure: 29.52"   Gusts: 23mph
Location:  35.67°N, 97.33°W
Report Text: KGOK 230953Z AUTO 17012G20KT 10SM OVC015 13/11 A2952 RMK AO2 SLP993 T01330111
Loading
Personal Weather Stations






























Interactive Weather Map New forecast layout! Learn more

10-Day Weather Forecast

Advertisements
Track Severe Weather on mobile